createdAt,value
2022-11-26T00:01:46.530Z,18.40
2022-11-26T00:04:15.507Z,18.40
2022-11-26T00:06:45.617Z,18.40
2022-11-26T00:09:19.307Z,18.40
2022-11-26T00:11:49.307Z,18.40
2022-11-26T00:14:18.871Z,18.40
2022-11-26T00:16:47.484Z,18.40
2022-11-26T00:19:16.363Z,18.40
2022-11-26T00:21:45.136Z,18.40
2022-11-26T00:24:28.364Z,18.40
2022-11-26T00:27:00.875Z,18.40
2022-11-26T00:29:29.745Z,18.40
2022-11-26T00:31:58.361Z,18.30
2022-11-26T00:34:27.204Z,18.40
2022-11-26T00:36:55.924Z,18.40
2022-11-26T00:39:25.877Z,18.40
2022-11-26T00:41:54.991Z,18.30
2022-11-26T00:44:26.644Z,18.30
2022-11-26T00:46:55.199Z,18.30
2022-11-26T00:49:24.201Z,18.30
2022-11-26T00:51:52.889Z,18.30
2022-11-26T00:54:23.943Z,18.30
2022-11-26T00:56:52.857Z,18.40
2022-11-26T00:59:24.419Z,18.30
2022-11-26T01:01:53.050Z,18.30
2022-11-26T01:04:21.937Z,18.30
2022-11-26T01:06:50.660Z,18.30
2022-11-26T01:09:22.425Z,18.30
2022-11-26T01:11:54.247Z,18.30
2022-11-26T01:14:25.269Z,18.30
2022-11-26T01:16:58.281Z,18.30
2022-11-26T01:19:27.192Z,18.30
2022-11-26T01:21:55.769Z,18.30
2022-11-26T01:24:24.582Z,18.30
2022-11-26T01:26:53.127Z,18.40
2022-11-26T01:29:22.347Z,18.40
2022-11-26T01:31:52.359Z,18.60
2022-11-26T01:34:21.225Z,18.60
2022-11-26T01:36:49.772Z,18.60
2022-11-26T01:39:21.649Z,18.60
2022-11-26T01:41:58.570Z,18.60
2022-11-26T01:44:30.850Z,18.70
2022-11-26T01:47:02.052Z,18.70
2022-11-26T01:49:34.051Z,18.70
2022-11-26T01:52:08.202Z,18.80
2022-11-26T01:54:41.195Z,18.80
2022-11-26T01:57:15.896Z,18.80
2022-11-26T01:59:51.353Z,18.80
2022-11-26T02:02:25.780Z,18.80
2022-11-26T02:05:05.955Z,18.80
2022-11-26T02:07:35.232Z,18.80
2022-11-26T02:10:04.906Z,18.80
2022-11-26T02:12:34.232Z,18.80
2022-11-26T02:15:03.373Z,18.80
2022-11-26T02:17:42.914Z,18.90
2022-11-26T02:20:47.413Z,18.90
2022-11-26T02:23:58.014Z,18.90
2022-11-26T02:27:30.939Z,18.90
2022-11-26T02:30:09.070Z,18.80
2022-11-26T02:32:57.547Z,18.80
2022-11-26T02:35:34.050Z,18.90
2022-11-26T02:38:07.904Z,18.80
2022-11-26T02:40:36.498Z,18.80
2022-11-26T02:43:05.570Z,18.90
2022-11-26T02:45:41.888Z,18.90
2022-11-26T02:48:21.176Z,19.00
2022-11-26T02:50:55.075Z,19.00
2022-11-26T02:53:27.919Z,18.90
2022-11-26T02:56:04.616Z,18.90
2022-11-26T02:58:35.765Z,18.90
2022-11-26T03:01:20.542Z,18.90
2022-11-26T03:03:54.999Z,18.90
2022-11-26T03:06:23.968Z,18.90
2022-11-26T03:08:54.769Z,18.90
2022-11-26T03:11:23.431Z,18.90
2022-11-26T03:13:52.338Z,18.90
2022-11-26T03:16:22.639Z,18.90
2022-11-26T03:18:51.541Z,19.00
2022-11-26T03:21:20.142Z,19.00
2022-11-26T03:23:49.172Z,19.10
2022-11-26T03:26:17.869Z,19.10
2022-11-26T03:28:46.765Z,19.10
2022-11-26T03:31:15.668Z,19.20
2022-11-26T03:33:45.923Z,19.10
2022-11-26T03:36:14.541Z,19.20
2022-11-26T03:38:43.385Z,18.70
2022-11-26T03:41:11.977Z,18.70
2022-11-26T03:43:40.841Z,18.90
2022-11-26T03:46:09.563Z,18.80
2022-11-26T03:48:38.460Z,18.80
2022-11-26T03:51:08.861Z,19.00
2022-11-26T03:53:37.739Z,19.10
2022-11-26T03:56:07.108Z,19.00
2022-11-26T03:58:36.932Z,18.80
2022-11-26T04:01:10.001Z,18.20
2022-11-26T04:03:39.330Z,18.30
2022-11-26T04:06:09.559Z,18.10
2022-11-26T04:08:38.481Z,18.20
2022-11-26T04:11:07.411Z,18.30
2022-11-26T04:13:36.547Z,18.50
2022-11-26T04:16:05.501Z,18.60
2022-11-26T04:18:34.446Z,18.70
2022-11-26T04:21:03.361Z,18.70
2022-11-26T04:23:33.570Z,18.50
2022-11-26T04:26:02.275Z,18.40
2022-11-26T04:28:31.247Z,17.50
2022-11-26T04:30:59.986Z,17.70
2022-11-26T04:33:28.956Z,17.40
2022-11-26T04:35:57.573Z,17.50
2022-11-26T04:38:26.446Z,17.40
2022-11-26T04:40:56.511Z,17.30
2022-11-26T04:43:25.423Z,17.20
2022-11-26T04:45:54.117Z,17.40
2022-11-26T04:48:22.996Z,17.70
2022-11-26T04:50:51.645Z,17.50
2022-11-26T04:53:22.054Z,17.70
2022-11-26T04:55:52.031Z,17.80
2022-11-26T04:58:22.777Z,17.80
2022-11-26T05:00:51.810Z,18.00
2022-11-26T05:03:21.008Z,17.90
2022-11-26T05:05:49.674Z,17.90
2022-11-26T05:08:18.593Z,17.90
2022-11-26T05:10:47.154Z,17.90
2022-11-26T05:13:16.012Z,18.10
2022-11-26T05:15:45.886Z,17.90
2022-11-26T05:18:14.728Z,17.90
2022-11-26T05:20:43.395Z,18.10
2022-11-26T05:23:12.326Z,18.10
2022-11-26T05:25:40.962Z,18.10
2022-11-26T05:28:09.863Z,17.80
2022-11-26T05:30:39.136Z,17.60
2022-11-26T05:33:09.344Z,17.70
2022-11-26T05:35:39.451Z,17.80
2022-11-26T05:38:08.368Z,17.50
2022-11-26T05:40:36.936Z,17.70
2022-11-26T05:43:05.782Z,17.80
2022-11-26T05:45:34.419Z,17.90
2022-11-26T05:48:03.313Z,18.20
2022-11-26T05:50:34.073Z,18.20
2022-11-26T05:53:03.054Z,18.40
2022-11-26T05:55:32.234Z,18.40
2022-11-26T05:58:01.191Z,18.50
2022-11-26T06:00:29.784Z,18.50
2022-11-26T06:02:58.801Z,18.60
2022-11-26T06:05:27.493Z,18.50
2022-11-26T06:07:57.855Z,17.40
2022-11-26T06:10:26.518Z,17.60
2022-11-26T06:12:55.505Z,17.50
2022-11-26T06:15:24.125Z,17.70
2022-11-26T06:17:52.979Z,17.90
2022-11-26T06:20:21.760Z,17.10
2022-11-26T06:22:50.612Z,17.10
2022-11-26T06:25:20.702Z,17.20
2022-11-26T06:27:49.599Z,16.60
2022-11-26T06:30:18.209Z,16.70
2022-11-26T06:32:47.184Z,16.90
2022-11-26T06:35:16.006Z,17.10
2022-11-26T06:37:45.141Z,17.30
2022-11-26T06:40:21.217Z,17.40
2022-11-26T06:42:51.002Z,17.60
2022-11-26T06:45:20.606Z,17.80
2022-11-26T06:47:51.911Z,17.80
2022-11-26T06:50:23.632Z,17.60
2022-11-26T06:52:53.949Z,17.70
2022-11-26T06:55:24.334Z,17.90
2022-11-26T06:57:53.734Z,17.70
2022-11-26T07:00:23.037Z,17.20
2022-11-26T07:02:52.059Z,17.50
2022-11-26T07:05:20.677Z,17.60
2022-11-26T07:07:49.629Z,17.70
2022-11-26T07:10:18.501Z,17.60
2022-11-26T07:12:48.700Z,17.70
2022-11-26T07:15:17.512Z,17.80
2022-11-26T07:17:46.378Z,17.70
2022-11-26T07:20:15.944Z,17.50
2022-11-26T07:22:45.005Z,17.50
2022-11-26T07:25:13.670Z,17.50
2022-11-26T07:27:42.565Z,17.70
2022-11-26T07:30:14.610Z,17.40
2022-11-26T07:32:44.545Z,17.40
2022-11-26T07:35:18.141Z,16.60
2022-11-26T07:37:47.035Z,15.90
2022-11-26T07:40:15.884Z,14.80
2022-11-26T07:42:48.088Z,14.00
2022-11-26T07:45:21.791Z,14.40
2022-11-26T07:47:50.784Z,13.90
2022-11-26T07:50:19.695Z,14.50
2022-11-26T07:52:48.529Z,14.90
2022-11-26T07:55:17.220Z,15.00
2022-11-26T07:57:46.073Z,14.60
2022-11-26T08:00:16.256Z,14.70
2022-11-26T08:02:46.554Z,15.40
2022-11-26T08:05:15.544Z,15.30
2022-11-26T08:07:44.404Z,15.00
2022-11-26T08:10:14.011Z,14.70
2022-11-26T08:12:42.954Z,15.20
2022-11-26T08:15:12.454Z,15.50
2022-11-26T08:17:41.331Z,14.90
2022-11-26T08:20:12.883Z,14.60
2022-11-26T08:22:42.567Z,14.80
2022-11-26T08:25:11.448Z,15.20
2022-11-26T08:27:40.499Z,15.70
2022-11-26T08:30:11.383Z,16.10
2022-11-26T08:32:40.245Z,16.40
2022-11-26T08:35:12.185Z,16.60
2022-11-26T08:37:42.645Z,16.80
2022-11-26T08:40:14.039Z,17.10
2022-11-26T08:42:43.133Z,17.20
2022-11-26T08:45:12.609Z,16.90
2022-11-26T08:47:41.530Z,17.00
2022-11-26T08:50:12.830Z,17.10
2022-11-26T08:52:41.822Z,17.20
2022-11-26T08:55:10.967Z,17.00
2022-11-26T08:57:39.792Z,17.00
2022-11-26T09:00:11.614Z,16.80
2022-11-26T09:02:40.610Z,16.30
2022-11-26T09:05:11.098Z,16.40
2022-11-26T09:07:40.904Z,16.80
2022-11-26T09:10:13.078Z,16.90
2022-11-26T09:12:42.533Z,17.20
2022-11-26T09:15:12.000Z,17.30
2022-11-26T09:17:41.074Z,17.10
2022-11-26T09:20:12.621Z,17.30
2022-11-26T09:22:41.826Z,17.30
2022-11-26T09:25:11.268Z,17.30
2022-11-26T09:27:40.245Z,17.50
2022-11-26T09:30:10.524Z,17.60
2022-11-26T09:32:39.622Z,17.40
2022-11-26T09:35:09.311Z,16.60
2022-11-26T09:37:39.520Z,15.90
2022-11-26T09:40:18.231Z,15.60
2022-11-26T09:42:59.318Z,15.70
2022-11-26T09:45:43.237Z,16.10
2022-11-26T09:48:19.253Z,16.30
2022-11-26T09:50:52.618Z,16.50
2022-11-26T09:53:28.501Z,16.00
2022-11-26T09:55:58.305Z,16.40
2022-11-26T09:58:35.455Z,16.80
2022-11-26T10:01:08.506Z,17.00
2022-11-26T10:03:39.295Z,17.20
2022-11-26T10:06:17.483Z,17.50
2022-11-26T10:09:19.135Z,17.60
2022-11-26T10:12:00.730Z,17.70
2022-11-26T10:14:47.215Z,17.70
2022-11-26T10:17:35.445Z,16.80
2022-11-26T10:20:35.048Z,16.20
2022-11-26T10:23:15.547Z,15.60
2022-11-26T10:25:51.287Z,14.90
2022-11-26T10:28:27.497Z,15.00
2022-11-26T10:31:00.955Z,15.60
2022-11-26T10:33:35.363Z,14.80
2022-11-26T10:36:10.174Z,14.90
2022-11-26T10:38:38.791Z,14.90
2022-11-26T10:41:08.971Z,14.90
2022-11-26T10:43:37.572Z,15.50
2022-11-26T10:46:06.812Z,15.80
2022-11-26T10:48:36.420Z,15.10
2022-11-26T10:51:13.656Z,14.80
2022-11-26T10:53:55.976Z,15.40
2022-11-26T10:56:37.747Z,15.50
2022-11-26T10:59:21.518Z,15.70
2022-11-26T11:01:51.621Z,15.30
2022-11-26T11:04:31.920Z,15.80
2022-11-26T11:07:00.924Z,15.60
2022-11-26T11:09:33.853Z,15.60
2022-11-26T11:12:22.520Z,15.90
2022-11-26T11:14:52.762Z,16.20
2022-11-26T11:17:38.045Z,15.80
2022-11-26T11:20:29.959Z,14.80
2022-11-26T11:23:04.388Z,15.20
2022-11-26T11:25:36.001Z,15.50
2022-11-26T11:28:16.891Z,16.00
2022-11-26T11:30:46.989Z,16.40
2022-11-26T11:33:24.105Z,17.00
2022-11-26T11:36:17.843Z,17.30
2022-11-26T11:38:51.225Z,17.30
2022-11-26T11:41:30.175Z,17.00
2022-11-26T11:44:13.295Z,17.20
2022-11-26T11:47:20.638Z,17.10
2022-11-26T11:50:14.955Z,16.40
2022-11-26T11:53:00.729Z,15.70
2022-11-26T11:55:52.250Z,16.20
2022-11-26T11:58:55.303Z,14.60
2022-11-26T12:01:47.500Z,14.70
2022-11-26T12:04:40.137Z,14.70
2022-11-26T12:07:38.633Z,14.80
2022-11-26T12:10:17.552Z,15.40
2022-11-26T12:12:52.442Z,16.00
2022-11-26T12:15:29.567Z,16.20
2022-11-26T12:18:09.868Z,16.50
2022-11-26T12:20:46.108Z,16.70
2022-11-26T12:23:30.466Z,16.20
2022-11-26T12:26:08.497Z,16.30
2022-11-26T12:28:51.121Z,16.00
2022-11-26T12:31:32.494Z,16.20
2022-11-26T12:34:12.967Z,15.90
2022-11-26T12:36:51.107Z,15.40
2022-11-26T12:39:36.575Z,15.40
2022-11-26T12:42:16.388Z,15.70
2022-11-26T12:44:51.781Z,15.80
2022-11-26T12:47:27.770Z,15.00
2022-11-26T12:50:12.909Z,15.30
2022-11-26T12:52:51.536Z,15.70
2022-11-26T12:55:27.750Z,16.10
2022-11-26T12:58:04.280Z,15.60
2022-11-26T13:00:36.700Z,16.20
2022-11-26T13:03:08.095Z,16.50
2022-11-26T13:05:56.552Z,16.40
2022-11-26T13:08:42.374Z,16.60
2022-11-26T13:11:37.762Z,16.40
2022-11-26T13:14:18.512Z,16.60
2022-11-26T13:16:56.550Z,16.40
2022-11-26T13:19:34.177Z,16.40
2022-11-26T13:22:44.961Z,16.40
2022-11-26T13:25:57.749Z,16.60
2022-11-26T13:28:49.922Z,16.00
2022-11-26T13:31:46.399Z,16.00
2022-11-26T13:34:41.680Z,16.30
2022-11-26T13:37:41.569Z,16.50
2022-11-26T13:40:44.920Z,16.20
2022-11-26T13:43:35.881Z,15.50
2022-11-26T13:46:21.610Z,14.80
2022-11-26T13:49:03.061Z,15.30
2022-11-26T13:51:39.785Z,15.50
2022-11-26T13:54:17.306Z,15.90
2022-11-26T13:56:48.220Z,15.90
2022-11-26T13:59:26.832Z,15.90
2022-11-26T14:01:57.900Z,15.10
2022-11-26T14:04:54.280Z,14.10
2022-11-26T14:07:23.188Z,14.30
2022-11-26T14:09:56.723Z,14.10
2022-11-26T14:13:04.882Z,14.40
2022-11-26T14:15:57.195Z,14.30
2022-11-26T14:19:01.561Z,14.20
2022-11-26T14:21:31.766Z,14.80
2022-11-26T14:24:03.329Z,14.80
2022-11-26T14:26:37.759Z,14.20
2022-11-26T14:29:17.629Z,14.40
2022-11-26T14:31:53.346Z,15.00
2022-11-26T14:34:32.611Z,14.90
2022-11-26T14:37:03.049Z,15.10
2022-11-26T14:39:32.780Z,14.90
2022-11-26T14:42:06.423Z,15.30
2022-11-26T14:44:35.671Z,15.70
2022-11-26T14:47:17.134Z,16.10
2022-11-26T14:49:55.104Z,16.40
2022-11-26T14:52:35.228Z,16.00
2022-11-26T14:55:09.638Z,15.90
2022-11-26T14:57:47.576Z,16.10
2022-11-26T15:00:26.104Z,16.00
2022-11-26T15:02:56.460Z,16.20
2022-11-26T15:05:29.227Z,16.20
2022-11-26T15:08:04.176Z,16.30
2022-11-26T15:10:37.150Z,16.50
2022-11-26T15:13:15.502Z,16.60
2022-11-26T15:15:53.453Z,16.60
2022-11-26T15:18:28.657Z,16.80
2022-11-26T15:20:59.691Z,17.20
2022-11-26T15:23:32.423Z,17.30
2022-11-26T15:26:01.560Z,16.40
2022-11-26T15:28:41.104Z,16.20
2022-11-26T15:31:10.535Z,16.30
2022-11-26T15:33:40.926Z,16.20
2022-11-26T15:36:17.140Z,16.10
2022-11-26T15:39:06.459Z,16.30
2022-11-26T15:41:42.735Z,16.50
2022-11-26T15:44:23.450Z,16.70
2022-11-26T15:46:56.586Z,15.90
2022-11-26T15:49:32.685Z,15.90
2022-11-26T15:52:05.189Z,16.20
2022-11-26T15:55:04.656Z,16.30
2022-11-26T15:57:30.878Z,15.40
2022-11-26T16:00:07.003Z,15.10
2022-11-26T16:02:39.597Z,15.20
2022-11-26T16:05:28.783Z,15.10
2022-11-26T16:08:01.214Z,15.50
2022-11-26T16:10:35.399Z,15.80
2022-11-26T16:13:23.153Z,16.00
2022-11-26T16:16:02.577Z,15.90
2022-11-26T16:18:39.549Z,15.80
2022-11-26T16:21:17.625Z,15.30
2022-11-26T16:23:54.530Z,15.20
2022-11-26T16:26:23.661Z,15.30
2022-11-26T16:28:52.555Z,15.30
2022-11-26T16:31:23.138Z,14.60
2022-11-26T16:33:52.018Z,14.50
2022-11-26T16:36:24.596Z,14.50
2022-11-26T16:38:54.268Z,14.90
2022-11-26T16:41:24.125Z,15.50
2022-11-26T16:43:53.086Z,15.40
2022-11-26T16:46:26.012Z,15.70
2022-11-26T16:48:55.264Z,15.80
2022-11-26T16:51:24.351Z,15.20
2022-11-26T16:53:53.223Z,15.80
2022-11-26T16:56:27.474Z,16.20
2022-11-26T16:59:02.568Z,16.40
2022-11-26T17:01:33.259Z,16.70
2022-11-26T17:04:02.137Z,16.90
2022-11-26T17:06:34.884Z,17.20
2022-11-26T17:09:03.979Z,17.40
2022-11-26T17:11:32.654Z,17.50
2022-11-26T17:14:01.582Z,16.90
2022-11-26T17:16:30.256Z,16.60
2022-11-26T17:19:00.497Z,16.10
2022-11-26T17:21:29.111Z,16.60
2022-11-26T17:23:58.070Z,16.80
2022-11-26T17:26:27.175Z,16.90
2022-11-26T17:28:56.031Z,17.10
2022-11-26T17:31:24.677Z,16.70
2022-11-26T17:33:53.539Z,15.90
2022-11-26T17:36:24.885Z,15.70
2022-11-26T17:38:53.829Z,15.80
2022-11-26T17:41:22.464Z,15.60
2022-11-26T17:43:51.295Z,15.90
2022-11-26T17:46:23.013Z,15.50
2022-11-26T17:48:57.011Z,15.40
2022-11-26T17:51:47.976Z,15.60
2022-11-26T17:54:16.880Z,16.00
2022-11-26T17:56:45.457Z,16.00
2022-11-26T17:59:18.219Z,16.00
2022-11-26T18:01:49.086Z,16.10
2022-11-26T18:04:18.954Z,15.40
2022-11-26T18:07:00.113Z,15.90
2022-11-26T18:09:28.976Z,15.20
2022-11-26T18:11:58.352Z,14.90
2022-11-26T18:14:28.624Z,15.00
2022-11-26T18:16:57.341Z,14.50
2022-11-26T18:19:26.339Z,14.90
2022-11-26T18:21:56.273Z,15.00
2022-11-26T18:24:25.307Z,15.40
2022-11-26T18:26:56.351Z,15.80
2022-11-26T18:29:25.807Z,16.00
2022-11-26T18:31:54.945Z,15.50
2022-11-26T18:34:24.087Z,15.20
2022-11-26T18:36:54.035Z,15.50
2022-11-26T18:39:24.611Z,15.30
2022-11-26T18:42:00.737Z,15.40
2022-11-26T18:44:42.026Z,15.50
2022-11-26T18:47:10.684Z,15.80
2022-11-26T18:49:43.315Z,15.90
2022-11-26T18:52:14.607Z,16.00
2022-11-26T18:54:44.815Z,15.70
2022-11-26T18:57:13.510Z,15.60
2022-11-26T18:59:42.649Z,15.40
2022-11-26T19:02:11.956Z,15.10
2022-11-26T19:04:41.246Z,15.20
2022-11-26T19:07:10.915Z,14.90
2022-11-26T19:09:40.243Z,13.90
2022-11-26T19:12:11.058Z,14.40
2022-11-26T19:14:40.411Z,14.70
2022-11-26T19:17:09.032Z,14.90
2022-11-26T19:19:39.919Z,14.90
2022-11-26T19:22:08.790Z,14.20
2022-11-26T19:24:37.838Z,14.00
2022-11-26T19:27:06.557Z,14.40
2022-11-26T19:29:36.828Z,14.30
2022-11-26T19:32:05.850Z,14.80
2022-11-26T19:34:34.723Z,14.90
2022-11-26T19:37:03.390Z,15.20
2022-11-26T19:39:33.379Z,15.40
2022-11-26T19:42:01.992Z,15.50
2022-11-26T19:44:30.869Z,14.90
2022-11-26T19:47:00.894Z,14.30
2022-11-26T19:49:30.280Z,14.20
2022-11-26T19:51:58.954Z,14.30
2022-11-26T19:54:28.079Z,14.40
2022-11-26T19:56:56.671Z,14.00
2022-11-26T19:59:25.640Z,13.60
2022-11-26T20:01:55.923Z,13.90
2022-11-26T20:04:27.623Z,14.10
2022-11-26T20:06:56.714Z,14.50
2022-11-26T20:09:25.658Z,14.80
2022-11-26T20:11:54.280Z,14.30
2022-11-26T20:14:23.167Z,14.60
2022-11-26T20:16:54.076Z,14.40
2022-11-26T20:19:28.032Z,13.40
2022-11-26T20:21:56.661Z,14.00
2022-11-26T20:24:25.610Z,14.70
2022-11-26T20:26:54.479Z,14.00
2022-11-26T20:29:23.913Z,13.80
2022-11-26T20:31:54.304Z,13.40
2022-11-26T20:34:26.217Z,13.40
2022-11-26T20:36:56.261Z,13.20
2022-11-26T20:39:25.422Z,13.60
2022-11-26T20:41:54.078Z,13.70
2022-11-26T20:44:24.695Z,12.60
2022-11-26T20:46:53.425Z,13.40
2022-11-26T20:49:23.384Z,13.00
2022-11-26T20:51:52.133Z,12.80
2022-11-26T20:54:22.307Z,12.80
2022-11-26T20:56:50.886Z,12.90
2022-11-26T20:59:19.749Z,13.20
2022-11-26T21:01:48.393Z,12.90
2022-11-26T21:04:17.262Z,13.50
2022-11-26T21:06:46.034Z,12.50
2022-11-26T21:09:15.664Z,12.70
2022-11-26T21:11:45.623Z,12.70
2022-11-26T21:14:15.328Z,12.00
2022-11-26T21:16:44.417Z,11.90
2022-11-26T21:19:14.550Z,11.70
2022-11-26T21:21:43.408Z,12.10
2022-11-26T21:24:12.365Z,11.60
2022-11-26T21:26:41.268Z,11.20
2022-11-26T21:29:11.484Z,10.90
2022-11-26T21:31:40.269Z,10.90
2022-11-26T21:34:15.721Z,10.80
2022-11-26T21:36:44.378Z,11.70
2022-11-26T21:39:17.208Z,12.20
2022-11-26T21:41:46.049Z,13.10
2022-11-26T21:44:16.874Z,13.00
2022-11-26T21:46:45.491Z,12.20
2022-11-26T21:49:14.352Z,11.70
2022-11-26T21:51:43.053Z,12.00
2022-11-26T21:54:12.236Z,12.40
2022-11-26T21:56:40.928Z,12.10
2022-11-26T21:59:11.554Z,12.80
2022-11-26T22:01:42.018Z,12.90
2022-11-26T22:04:15.691Z,13.60
2022-11-26T22:06:46.370Z,13.30
2022-11-26T22:09:17.499Z,12.60
2022-11-26T22:11:47.120Z,12.80
2022-11-26T22:14:18.038Z,12.80
2022-11-26T22:16:52.071Z,13.40
2022-11-26T22:19:21.055Z,12.70
2022-11-26T22:21:49.746Z,13.50
2022-11-26T22:24:21.339Z,12.90
2022-11-26T22:26:49.936Z,12.70
2022-11-26T22:29:20.931Z,11.90
2022-11-26T22:31:51.370Z,11.60
2022-11-26T22:34:22.159Z,11.80
2022-11-26T22:36:50.989Z,12.10
2022-11-26T22:39:20.648Z,11.90
2022-11-26T22:41:50.120Z,11.60
2022-11-26T22:44:19.324Z,11.90
2022-11-26T22:46:47.905Z,11.60
2022-11-26T22:49:19.702Z,12.40
2022-11-26T22:51:48.356Z,12.50
2022-11-26T22:54:18.169Z,12.70
2022-11-26T22:56:46.923Z,13.10
2022-11-26T22:59:16.111Z,13.30
2022-11-26T23:01:44.821Z,13.50
2022-11-26T23:04:13.747Z,13.00
2022-11-26T23:06:43.833Z,13.30
2022-11-26T23:09:14.412Z,13.60
2022-11-26T23:11:44.298Z,14.30
2022-11-26T23:14:13.760Z,14.80
2022-11-26T23:16:44.149Z,14.90
2022-11-26T23:19:16.186Z,14.90
2022-11-26T23:21:46.979Z,15.10
2022-11-26T23:24:17.614Z,14.90
2022-11-26T23:26:47.102Z,15.10
2022-11-26T23:29:15.987Z,15.70
2022-11-26T23:31:45.909Z,16.10
2022-11-26T23:34:15.884Z,16.30
2022-11-26T23:36:45.821Z,15.60
2022-11-26T23:39:14.966Z,15.80
2022-11-26T23:41:44.694Z,16.10
2022-11-26T23:44:13.676Z,16.10
2022-11-26T23:46:42.282Z,16.30
2022-11-26T23:49:11.804Z,16.30
2022-11-26T23:51:40.365Z,16.20
2022-11-26T23:54:10.539Z,16.30
2022-11-26T23:56:39.195Z,16.50
2022-11-26T23:59:08.045Z,16.30
